createdAt,value
2022-11-24T00:01:45.169Z,47.10
2022-11-24T00:03:53.292Z,47.10
2022-11-24T00:05:54.881Z,47.20
2022-11-24T00:07:56.502Z,47.10
2022-11-24T00:09:58.178Z,47.10
2022-11-24T00:12:01.253Z,47.10
2022-11-24T00:14:04.043Z,47.10
2022-11-24T00:16:14.715Z,47.10
2022-11-24T00:18:16.326Z,47.10
2022-11-24T00:20:17.936Z,47.10
2022-11-24T00:22:19.587Z,47.00
2022-11-24T00:24:21.165Z,47.10
2022-11-24T00:26:28.322Z,47.00
2022-11-24T00:28:30.079Z,47.10
2022-11-24T00:30:33.514Z,47.10
2022-11-24T00:32:35.197Z,47.10
2022-11-24T00:34:36.946Z,47.20
2022-11-24T00:36:39.037Z,47.10
2022-11-24T00:38:40.653Z,47.10
2022-11-24T00:40:42.980Z,47.10
2022-11-24T00:42:44.654Z,47.10
2022-11-24T00:44:46.287Z,47.10
2022-11-24T00:46:48.018Z,47.10
2022-11-24T00:48:49.983Z,47.10
2022-11-24T00:51:01.414Z,47.10
2022-11-24T00:53:03.138Z,47.20
2022-11-24T00:55:05.120Z,47.10
2022-11-24T00:57:07.140Z,47.10
2022-11-24T00:59:08.854Z,47.10
2022-11-24T01:01:18.867Z,47.10
2022-11-24T01:03:21.244Z,47.80
2022-11-24T01:05:22.864Z,47.20
2022-11-24T01:07:24.518Z,47.10
2022-11-24T01:09:26.855Z,47.20
2022-11-24T01:11:52.192Z,47.20
2022-11-24T01:13:57.257Z,47.10
2022-11-24T01:15:59.021Z,47.10
2022-11-24T01:18:00.721Z,47.10
2022-11-24T01:20:02.909Z,47.10
2022-11-24T01:22:04.838Z,47.10
2022-11-24T01:24:06.752Z,47.20
2022-11-24T01:26:11.151Z,47.10
2022-11-24T01:28:13.492Z,47.20
2022-11-24T01:30:15.098Z,47.20
2022-11-24T01:32:16.699Z,47.20
2022-11-24T01:34:18.363Z,47.20
2022-11-24T01:36:20.650Z,47.20
2022-11-24T01:38:22.292Z,47.20
2022-11-24T01:40:23.878Z,47.20
2022-11-24T01:42:25.675Z,47.20
2022-11-24T01:44:29.748Z,47.20
2022-11-24T01:46:43.510Z,47.10
2022-11-24T01:49:03.762Z,47.20
2022-11-24T01:51:10.770Z,47.20
2022-11-24T01:53:13.828Z,47.20
2022-11-24T01:55:22.636Z,47.20
2022-11-24T01:57:32.386Z,47.10
2022-11-24T01:59:34.010Z,47.20
2022-11-24T02:01:35.750Z,47.20
2022-11-24T02:03:40.031Z,47.20
2022-11-24T02:05:50.452Z,47.20
2022-11-24T02:07:55.664Z,47.20
2022-11-24T02:10:02.334Z,47.20
2022-11-24T02:12:04.603Z,47.20
2022-11-24T02:14:09.631Z,47.20
2022-11-24T02:16:12.462Z,47.20
2022-11-24T02:18:14.271Z,47.20
2022-11-24T02:20:17.113Z,47.20
2022-11-24T02:22:32.068Z,47.20
2022-11-24T02:24:45.277Z,47.30
2022-11-24T02:26:49.007Z,47.30
2022-11-24T02:28:50.803Z,47.20
2022-11-24T02:30:52.906Z,47.20
2022-11-24T02:32:54.956Z,47.30
2022-11-24T02:35:05.458Z,47.20
2022-11-24T02:37:07.165Z,47.20
2022-11-24T02:39:13.653Z,47.20
2022-11-24T02:41:19.880Z,47.20
2022-11-24T02:43:23.368Z,47.20
2022-11-24T02:45:27.261Z,47.10
2022-11-24T02:47:28.919Z,47.10
2022-11-24T02:49:30.699Z,47.80
2022-11-24T02:51:34.297Z,47.10
2022-11-24T02:53:35.924Z,47.10
2022-11-24T02:55:37.571Z,47.10
2022-11-24T02:57:39.214Z,47.10
2022-11-24T02:59:40.927Z,47.10
2022-11-24T03:01:42.773Z,47.20
2022-11-24T03:03:44.580Z,47.20
2022-11-24T03:05:46.244Z,47.10
2022-11-24T03:07:47.904Z,47.20
2022-11-24T03:09:49.565Z,47.20
2022-11-24T03:11:51.219Z,47.20
2022-11-24T03:13:52.845Z,47.20
2022-11-24T03:15:54.483Z,47.20
2022-11-24T03:17:58.841Z,47.30
2022-11-24T03:20:04.910Z,47.30
2022-11-24T03:22:06.890Z,47.30
2022-11-24T03:24:08.946Z,47.40
2022-11-24T03:26:16.558Z,47.40
2022-11-24T03:28:18.167Z,47.50
2022-11-24T03:30:19.795Z,47.40
2022-11-24T03:32:21.400Z,47.40
2022-11-24T03:34:22.982Z,47.40
2022-11-24T03:36:24.594Z,47.40
2022-11-24T03:38:26.678Z,47.50
2022-11-24T03:40:28.312Z,47.40
2022-11-24T03:42:29.899Z,47.40
2022-11-24T03:44:31.789Z,47.40
2022-11-24T03:46:33.665Z,47.40
2022-11-24T03:48:35.443Z,47.30
2022-11-24T03:50:37.065Z,47.40
2022-11-24T03:52:38.682Z,47.30
2022-11-24T03:54:40.323Z,47.30
2022-11-24T03:56:41.940Z,47.40
2022-11-24T03:58:43.581Z,47.30
2022-11-24T04:00:45.950Z,47.30
2022-11-24T04:02:48.218Z,47.40
2022-11-24T04:04:52.406Z,47.30
2022-11-24T04:06:54.051Z,47.40
2022-11-24T04:08:56.384Z,47.40
2022-11-24T04:10:57.967Z,47.30
2022-11-24T04:12:59.576Z,47.30
2022-11-24T04:15:01.167Z,47.30
2022-11-24T04:17:04.225Z,47.30
2022-11-24T04:19:06.412Z,47.40
2022-11-24T04:21:08.002Z,47.30
2022-11-24T04:23:10.643Z,47.30
2022-11-24T04:25:12.675Z,47.30
2022-11-24T04:27:15.915Z,47.30
2022-11-24T04:29:17.510Z,47.30
2022-11-24T04:31:19.278Z,47.30
2022-11-24T04:33:20.927Z,47.30
2022-11-24T04:35:22.819Z,47.20
2022-11-24T04:37:24.431Z,47.20
2022-11-24T04:39:28.851Z,47.10
2022-11-24T04:41:30.627Z,47.10
2022-11-24T04:43:37.745Z,47.00
2022-11-24T04:45:41.943Z,47.00
2022-11-24T04:47:43.687Z,46.90
2022-11-24T04:49:47.270Z,46.90
2022-11-24T04:51:48.890Z,46.80
2022-11-24T04:53:50.495Z,46.70
2022-11-24T04:55:52.112Z,46.70
2022-11-24T04:57:53.822Z,46.70
2022-11-24T04:59:55.568Z,46.70
2022-11-24T05:01:57.309Z,46.70
2022-11-24T05:03:59.046Z,46.60
2022-11-24T05:06:00.789Z,46.60
2022-11-24T05:08:02.501Z,46.70
2022-11-24T05:10:24.329Z,46.70
2022-11-24T05:12:30.972Z,46.70
2022-11-24T05:14:32.851Z,46.70
2022-11-24T05:16:34.728Z,46.60
2022-11-24T05:18:37.762Z,46.60
2022-11-24T05:20:39.618Z,46.60
2022-11-24T05:22:41.236Z,46.60
2022-11-24T05:24:42.859Z,46.60
2022-11-24T05:26:44.506Z,46.70
2022-11-24T05:28:46.124Z,46.70
2022-11-24T05:30:47.774Z,46.80
2022-11-24T05:32:49.406Z,46.80
2022-11-24T05:34:51.805Z,46.90
2022-11-24T05:36:53.427Z,46.90
2022-11-24T05:38:55.360Z,46.90
2022-11-24T05:41:04.744Z,46.90
2022-11-24T05:43:16.986Z,47.10
2022-11-24T05:45:21.469Z,47.10
2022-11-24T05:47:23.492Z,47.00
2022-11-24T05:49:25.127Z,47.10
2022-11-24T05:51:27.594Z,47.30
2022-11-24T05:53:29.254Z,47.50
2022-11-24T05:55:31.202Z,47.80
2022-11-24T05:57:33.146Z,47.70
2022-11-24T05:59:35.066Z,47.80
2022-11-24T06:01:37.007Z,48.00
2022-11-24T06:03:39.100Z,48.10
2022-11-24T06:05:45.322Z,48.20
2022-11-24T06:07:47.048Z,48.10
2022-11-24T06:09:48.820Z,48.00
2022-11-24T06:11:50.493Z,48.10
2022-11-24T06:13:52.159Z,48.00
2022-11-24T06:15:54.243Z,47.70
2022-11-24T06:18:02.556Z,47.60
2022-11-24T06:20:05.834Z,47.50
2022-11-24T06:22:07.438Z,47.40
2022-11-24T06:24:09.159Z,47.50
2022-11-24T06:26:10.894Z,47.40
2022-11-24T06:28:12.553Z,47.30
2022-11-24T06:30:14.871Z,47.10
2022-11-24T06:32:16.941Z,47.00
2022-11-24T06:34:18.709Z,46.90
2022-11-24T06:36:20.409Z,46.90
2022-11-24T06:38:24.408Z,46.80
2022-11-24T06:40:26.206Z,46.80
2022-11-24T06:42:27.839Z,46.90
2022-11-24T06:44:29.526Z,46.80
2022-11-24T06:46:31.454Z,46.80
2022-11-24T06:48:33.447Z,46.80
2022-11-24T06:50:35.606Z,46.70
2022-11-24T06:52:37.222Z,46.70
2022-11-24T06:54:38.862Z,46.60
2022-11-24T06:56:40.493Z,46.60
2022-11-24T06:58:47.297Z,46.50
2022-11-24T07:00:48.950Z,46.50
2022-11-24T07:02:50.582Z,46.40
2022-11-24T07:04:52.232Z,46.70
2022-11-24T07:06:53.902Z,46.60
2022-11-24T07:08:55.570Z,46.90
2022-11-24T07:10:57.200Z,46.90
2022-11-24T07:12:58.865Z,47.40
2022-11-24T07:15:00.626Z,46.60
2022-11-24T07:17:02.623Z,46.60
2022-11-24T07:19:04.374Z,46.50
2022-11-24T07:21:06.538Z,46.40
2022-11-24T07:23:09.221Z,46.40
2022-11-24T07:25:10.870Z,46.30
2022-11-24T07:27:12.528Z,46.40
2022-11-24T07:29:14.200Z,46.30
2022-11-24T07:31:21.611Z,46.30
2022-11-24T07:33:25.974Z,46.20
2022-11-24T07:35:28.117Z,46.20
2022-11-24T07:37:31.847Z,46.20
2022-11-24T07:39:33.675Z,46.20
2022-11-24T07:41:35.263Z,46.10
2022-11-24T07:43:37.990Z,46.10
2022-11-24T07:45:39.681Z,46.10
2022-11-24T07:47:41.674Z,46.10
2022-11-24T07:49:43.362Z,46.00
2022-11-24T07:51:45.302Z,45.90
2022-11-24T07:53:47.003Z,46.00
2022-11-24T07:56:00.274Z,45.90
2022-11-24T07:58:02.498Z,45.90
2022-11-24T08:00:05.976Z,45.90
2022-11-24T08:02:09.122Z,45.80
2022-11-24T08:04:10.852Z,45.90
2022-11-24T08:06:32.565Z,45.80
2022-11-24T08:08:34.806Z,45.70
2022-11-24T08:10:36.413Z,45.70
2022-11-24T08:12:38.139Z,45.60
2022-11-24T08:14:39.739Z,46.30
2022-11-24T08:16:41.398Z,45.60
2022-11-24T08:18:43.756Z,45.60
2022-11-24T08:20:45.413Z,45.50
2022-11-24T08:22:47.062Z,45.50
2022-11-24T08:24:49.275Z,45.50
2022-11-24T08:26:50.882Z,45.40
2022-11-24T08:28:59.330Z,45.40
2022-11-24T08:31:19.293Z,45.40
2022-11-24T08:33:20.983Z,45.40
2022-11-24T08:35:22.584Z,45.40
2022-11-24T08:37:26.324Z,45.30
2022-11-24T08:39:28.004Z,45.30
2022-11-24T08:41:30.560Z,45.30
2022-11-24T08:43:32.346Z,45.30
2022-11-24T08:45:39.724Z,45.20
2022-11-24T08:47:42.894Z,45.20
2022-11-24T08:49:44.504Z,45.20
2022-11-24T08:51:48.487Z,45.20
2022-11-24T08:53:55.736Z,45.20
2022-11-24T08:56:01.175Z,45.10
2022-11-24T08:58:02.918Z,45.10
2022-11-24T09:00:06.240Z,45.10
2022-11-24T09:02:12.386Z,45.10
2022-11-24T09:04:14.247Z,44.80
2022-11-24T09:06:17.695Z,45.20
2022-11-24T09:08:19.336Z,45.10
2022-11-24T09:10:21.069Z,45.00
2022-11-24T09:12:22.734Z,45.00
2022-11-24T09:14:24.473Z,45.00
2022-11-24T09:16:28.781Z,44.90
2022-11-24T09:18:30.733Z,45.00
2022-11-24T09:20:32.430Z,44.90
2022-11-24T09:22:34.093Z,45.10
2022-11-24T09:24:35.754Z,45.20
2022-11-24T09:26:43.125Z,45.20
2022-11-24T09:28:48.439Z,45.10
2022-11-24T09:30:50.184Z,45.10
2022-11-24T09:32:51.876Z,45.10
2022-11-24T09:34:53.467Z,45.00
2022-11-24T09:36:55.603Z,45.00
2022-11-24T09:38:57.346Z,45.00
2022-11-24T09:41:17.862Z,45.30
2022-11-24T09:43:29.197Z,45.20
2022-11-24T09:46:03.790Z,45.20
2022-11-24T09:48:15.731Z,45.30
2022-11-24T09:50:22.738Z,45.20
2022-11-24T09:52:53.557Z,45.20
2022-11-24T09:55:00.292Z,45.20
2022-11-24T09:57:05.766Z,45.20
2022-11-24T09:59:24.196Z,45.20
2022-11-24T10:01:36.787Z,45.20
2022-11-24T10:03:44.159Z,45.20
2022-11-24T10:05:49.931Z,45.20
2022-11-24T10:08:17.262Z,45.90
2022-11-24T10:10:28.405Z,45.20
2022-11-24T10:12:51.237Z,45.20
2022-11-24T10:14:52.939Z,45.20
2022-11-24T10:17:20.149Z,45.20
2022-11-24T10:19:37.670Z,45.20
2022-11-24T10:21:42.258Z,45.20
2022-11-24T10:23:49.958Z,45.10
2022-11-24T10:25:59.323Z,45.20
2022-11-24T10:28:09.891Z,45.10
2022-11-24T10:30:19.424Z,45.10
2022-11-24T10:32:30.394Z,45.20
2022-11-24T10:34:39.393Z,45.20
2022-11-24T10:36:57.690Z,45.10
2022-11-24T10:39:12.266Z,45.10
2022-11-24T10:41:20.820Z,45.10
2022-11-24T10:43:22.767Z,45.20
2022-11-24T10:45:27.651Z,45.10
2022-11-24T10:47:30.678Z,45.10
2022-11-24T10:49:33.531Z,45.10
2022-11-24T10:52:12.505Z,45.10
2022-11-24T10:54:20.180Z,45.10
2022-11-24T10:56:22.010Z,45.10
2022-11-24T10:58:38.733Z,45.10
2022-11-24T11:00:40.498Z,45.10
2022-11-24T11:02:42.306Z,45.10
2022-11-24T11:04:44.024Z,45.10
2022-11-24T11:06:45.801Z,45.10
2022-11-24T11:08:47.613Z,45.10
2022-11-24T11:10:52.373Z,45.10
2022-11-24T11:12:53.962Z,45.10
2022-11-24T11:14:55.727Z,45.10
2022-11-24T11:16:58.406Z,45.20
2022-11-24T11:19:15.661Z,45.40
2022-11-24T11:21:45.092Z,45.40
2022-11-24T11:23:51.745Z,45.60
2022-11-24T11:26:25.465Z,45.70
2022-11-24T11:28:29.199Z,45.90
2022-11-24T11:35:19.698Z,45.70
2022-11-24T11:37:24.136Z,45.70
2022-11-24T11:39:37.656Z,45.80
2022-11-24T11:41:45.233Z,45.80
2022-11-24T11:43:52.244Z,45.80
2022-11-24T11:46:05.035Z,45.90
2022-11-24T11:48:25.731Z,45.80
2022-11-24T11:50:59.184Z,45.90
2022-11-24T11:53:31.860Z,45.90
2022-11-24T11:55:46.610Z,46.00
2022-11-24T11:58:17.367Z,46.00
2022-11-24T12:00:21.947Z,46.10
2022-11-24T12:02:57.362Z,46.00
2022-11-24T12:05:51.612Z,46.00
2022-11-24T12:08:21.520Z,46.00
2022-11-24T12:10:35.955Z,46.00
2022-11-24T12:13:10.145Z,45.90
2022-11-24T12:15:25.804Z,45.90
2022-11-24T12:17:46.813Z,45.90
2022-11-24T12:20:32.390Z,45.90
2022-11-24T12:22:48.013Z,45.80
2022-11-24T12:25:14.042Z,45.80
2022-11-24T12:27:26.831Z,45.70
2022-11-24T12:29:58.569Z,45.60
2022-11-24T12:32:15.821Z,45.50
2022-11-24T12:34:43.541Z,45.70
2022-11-24T12:37:00.317Z,45.80
2022-11-24T12:39:25.434Z,45.80
2022-11-24T12:42:00.141Z,45.80
2022-11-24T12:44:03.063Z,46.10
2022-11-24T12:46:19.228Z,45.50
2022-11-24T12:48:41.287Z,45.10
2022-11-24T12:50:45.853Z,45.20
2022-11-24T12:53:02.459Z,45.10
2022-11-24T12:55:05.144Z,45.70
2022-11-24T12:57:31.799Z,46.00
2022-11-24T12:59:37.002Z,46.40
2022-11-24T13:01:50.026Z,46.70
2022-11-24T13:04:22.571Z,46.70
2022-11-24T13:06:49.103Z,46.70
2022-11-24T13:08:51.594Z,46.70
2022-11-24T13:10:56.185Z,46.80
2022-11-24T13:13:02.969Z,46.90
2022-11-24T13:15:43.561Z,46.80
2022-11-24T13:17:59.472Z,46.70
2022-11-24T13:20:21.337Z,46.90
2022-11-24T13:22:25.490Z,47.00
2022-11-24T13:24:30.735Z,47.00
2022-11-24T13:26:49.009Z,47.00
2022-11-24T13:29:13.376Z,47.10
2022-11-24T13:31:26.457Z,47.00
2022-11-24T13:33:31.471Z,47.20
2022-11-24T13:35:33.199Z,47.20
2022-11-24T13:37:36.491Z,47.50
2022-11-24T13:39:58.445Z,47.50
2022-11-24T13:42:00.427Z,47.70
2022-11-24T13:44:14.674Z,47.80
2022-11-24T13:46:57.551Z,47.90
2022-11-24T13:49:01.874Z,47.70
2022-11-24T13:51:03.768Z,47.80
2022-11-24T13:53:15.586Z,47.70
2022-11-24T13:55:19.334Z,47.90
2022-11-24T13:57:41.198Z,47.80
2022-11-24T13:59:43.207Z,47.60
2022-11-24T14:01:46.731Z,47.60
2022-11-24T14:07:07.437Z,47.60
2022-11-24T14:09:28.675Z,44.60
2022-11-24T14:11:30.326Z,40.90
2022-11-24T14:13:33.159Z,41.90
2022-11-24T14:15:36.449Z,43.00
2022-11-24T14:17:38.314Z,44.10
2022-11-24T14:19:44.051Z,44.50
2022-11-24T14:21:46.502Z,44.60
2022-11-24T14:23:51.580Z,44.80
2022-11-24T14:25:53.506Z,45.00
2022-11-24T14:27:55.226Z,45.00
2022-11-24T14:30:05.924Z,45.30
2022-11-24T14:32:16.753Z,45.40
2022-11-24T14:34:21.238Z,45.50
2022-11-24T14:36:22.898Z,45.60
2022-11-24T14:38:24.606Z,45.60
2022-11-24T14:40:50.077Z,45.70
2022-11-24T14:42:51.787Z,45.70
2022-11-24T14:44:58.483Z,45.70
2022-11-24T14:47:05.857Z,45.70
2022-11-24T14:49:07.831Z,45.60
2022-11-24T14:51:21.387Z,45.50
2022-11-24T14:53:26.265Z,45.50
2022-11-24T14:55:35.211Z,45.60
2022-11-24T14:57:37.898Z,45.50
2022-11-24T14:59:39.618Z,45.50
2022-11-24T15:01:41.575Z,45.60
2022-11-24T15:03:43.229Z,45.60
2022-11-24T15:05:57.063Z,46.30
2022-11-24T15:08:03.130Z,45.60
2022-11-24T15:10:17.304Z,45.60
2022-11-24T15:12:30.628Z,45.70
2022-11-24T15:14:38.769Z,45.80
2022-11-24T15:16:40.588Z,45.80
2022-11-24T15:18:55.850Z,45.80
2022-11-24T15:20:57.675Z,45.70
2022-11-24T15:23:23.334Z,45.70
2022-11-24T15:25:33.322Z,45.80
2022-11-24T15:27:34.976Z,45.80
2022-11-24T15:29:36.606Z,45.80
2022-11-24T15:31:46.313Z,45.80
2022-11-24T15:33:51.103Z,43.70
2022-11-24T15:35:52.923Z,44.50
2022-11-24T15:37:54.633Z,45.10
2022-11-24T15:39:56.237Z,45.30
2022-11-24T15:41:58.161Z,45.50
2022-11-24T15:44:00.187Z,45.60
2022-11-24T15:46:03.283Z,45.70
2022-11-24T15:48:05.171Z,45.70
2022-11-24T15:50:07.480Z,45.60
2022-11-24T15:52:09.086Z,45.60
2022-11-24T15:54:15.558Z,45.60
2022-11-24T15:56:28.430Z,44.70
2022-11-24T15:58:30.044Z,44.40
2022-11-24T16:00:32.670Z,45.20
2022-11-24T16:02:34.396Z,45.40
2022-11-24T16:04:36.296Z,44.90
2022-11-24T16:06:38.219Z,44.60
2022-11-24T16:08:40.018Z,45.00
2022-11-24T16:10:43.098Z,45.20
2022-11-24T16:12:44.707Z,45.40
2022-11-24T16:14:46.397Z,45.40
2022-11-24T16:16:48.060Z,45.50
2022-11-24T16:18:49.896Z,46.20
2022-11-24T16:20:51.550Z,45.50
2022-11-24T16:22:54.186Z,45.50
2022-11-24T16:24:55.815Z,45.50
2022-11-24T16:26:57.468Z,45.50
2022-11-24T16:28:59.113Z,44.60
2022-11-24T16:31:00.882Z,43.30
2022-11-24T16:33:08.249Z,44.70
2022-11-24T16:35:10.002Z,44.80
2022-11-24T16:37:11.587Z,44.50
2022-11-24T16:39:13.276Z,45.00
2022-11-24T16:41:15.918Z,45.30
2022-11-24T16:43:17.619Z,45.50
2022-11-24T16:45:19.231Z,45.60
2022-11-24T16:47:20.938Z,45.70
2022-11-24T16:49:22.583Z,45.60
2022-11-24T16:51:27.785Z,45.60
2022-11-24T16:53:33.551Z,45.60
2022-11-24T16:55:35.191Z,45.60
2022-11-24T16:57:37.042Z,45.80
2022-11-24T16:59:39.000Z,46.00
2022-11-24T17:01:40.768Z,46.40
2022-11-24T17:03:42.422Z,46.50
2022-11-24T17:05:44.020Z,46.60
2022-11-24T17:07:45.698Z,46.90
2022-11-24T17:09:48.254Z,47.00
2022-11-24T17:11:50.062Z,47.10
2022-11-24T17:13:52.291Z,47.20
2022-11-24T17:15:54.491Z,47.30
2022-11-24T17:18:22.791Z,47.40
2022-11-24T17:20:18.030Z,47.40
2022-11-24T17:22:19.651Z,47.80
2022-11-24T17:24:21.453Z,47.70
2022-11-24T17:26:23.867Z,47.70
2022-11-24T17:28:25.503Z,47.60
2022-11-24T17:30:27.116Z,47.70
2022-11-24T17:32:28.752Z,48.40
2022-11-24T17:34:30.359Z,47.70
2022-11-24T17:36:34.071Z,47.70
2022-11-24T17:38:36.801Z,47.90
2022-11-24T17:40:38.473Z,47.90
2022-11-24T17:42:40.099Z,47.60
2022-11-24T17:44:41.757Z,47.00
2022-11-24T17:46:43.378Z,47.30
2022-11-24T17:48:45.303Z,47.30
2022-11-24T17:50:46.932Z,47.20
2022-11-24T17:52:48.578Z,47.30
2022-11-24T17:54:50.226Z,47.30
2022-11-24T17:56:51.901Z,47.30
2022-11-24T17:59:00.917Z,47.30
2022-11-24T18:01:02.712Z,47.30
2022-11-24T18:03:05.394Z,47.40
2022-11-24T18:05:07.549Z,47.40
2022-11-24T18:07:09.233Z,47.20
2022-11-24T18:09:11.026Z,47.20
2022-11-24T18:11:15.529Z,47.20
2022-11-24T18:13:34.216Z,47.20
2022-11-24T18:15:38.851Z,47.10
2022-11-24T18:17:40.508Z,47.10
2022-11-24T18:19:42.144Z,47.00
2022-11-24T18:21:44.771Z,46.90
2022-11-24T18:23:47.243Z,46.90
2022-11-24T18:26:00.498Z,46.90
2022-11-24T18:28:02.135Z,46.90
2022-11-24T18:30:05.062Z,47.10
2022-11-24T18:32:06.858Z,47.20
2022-11-24T18:34:08.839Z,47.20
2022-11-24T18:36:17.273Z,47.20
2022-11-24T18:38:19.090Z,47.10
2022-11-24T18:40:20.750Z,47.00
2022-11-24T18:42:25.453Z,47.00
2022-11-24T18:44:27.093Z,46.90
2022-11-24T18:46:29.054Z,46.90
2022-11-24T18:48:30.726Z,46.90
2022-11-24T18:50:33.185Z,46.80
2022-11-24T18:52:34.880Z,46.70
2022-11-24T18:54:36.986Z,46.60
2022-11-24T18:56:38.902Z,47.20
2022-11-24T18:58:40.736Z,46.60
2022-11-24T19:00:42.368Z,46.50
2022-11-24T19:02:44.049Z,46.50
2022-11-24T19:04:45.743Z,46.40
2022-11-24T19:06:47.350Z,46.40
2022-11-24T19:08:52.084Z,46.30
2022-11-24T19:10:53.728Z,46.30
2022-11-24T19:12:55.988Z,46.30
2022-11-24T19:14:57.637Z,46.20
2022-11-24T19:17:02.100Z,46.30
2022-11-24T19:19:04.415Z,46.20
2022-11-24T19:21:06.343Z,46.20
2022-11-24T19:23:07.936Z,46.20
2022-11-24T19:25:09.716Z,46.20
2022-11-24T19:27:11.356Z,46.20
2022-11-24T19:29:13.006Z,46.10
2022-11-24T19:31:16.556Z,46.10
2022-11-24T19:33:18.833Z,46.00
2022-11-24T19:35:20.665Z,46.00
2022-11-24T19:37:23.485Z,46.60
2022-11-24T19:39:25.206Z,45.90
2022-11-24T19:41:29.892Z,45.80
2022-11-24T19:43:31.807Z,45.80
2022-11-24T19:45:33.554Z,45.80
2022-11-24T19:47:35.314Z,45.80
2022-11-24T19:49:36.925Z,45.80
2022-11-24T19:51:39.697Z,45.80
2022-11-24T19:53:43.322Z,45.70
2022-11-24T19:55:45.009Z,45.70
2022-11-24T19:57:46.791Z,45.60
2022-11-24T19:59:48.649Z,45.60
2022-11-24T20:01:50.417Z,45.60
2022-11-24T20:04:00.610Z,45.60
2022-11-24T20:06:02.373Z,45.50
2022-11-24T20:08:04.243Z,45.50
2022-11-24T20:10:08.019Z,45.50
2022-11-24T20:12:10.174Z,45.50
2022-11-24T20:14:14.352Z,45.40
2022-11-24T20:16:26.074Z,45.40
2022-11-24T20:18:30.036Z,45.30
2022-11-24T20:20:32.588Z,45.30
2022-11-24T20:22:34.247Z,45.30
2022-11-24T20:24:36.185Z,45.20
2022-11-24T20:26:41.825Z,45.30
2022-11-24T20:28:43.490Z,45.30
2022-11-24T20:30:45.090Z,45.30
2022-11-24T20:32:46.717Z,45.30
2022-11-24T20:34:49.222Z,45.30
2022-11-24T20:36:52.864Z,45.30
2022-11-24T20:38:55.185Z,45.30
2022-11-24T20:41:09.072Z,45.40
2022-11-24T20:43:11.105Z,45.30
2022-11-24T20:45:12.760Z,45.40
2022-11-24T20:47:14.438Z,45.40
2022-11-24T20:49:19.099Z,45.40
2022-11-24T20:51:23.082Z,45.40
2022-11-24T20:53:24.762Z,45.40
2022-11-24T20:55:26.437Z,45.40
2022-11-24T20:57:28.083Z,45.40
2022-11-24T20:59:29.739Z,45.40
2022-11-24T21:01:35.055Z,45.40
2022-11-24T21:03:42.877Z,45.50
2022-11-24T21:05:45.021Z,45.40
2022-11-24T21:07:46.712Z,45.40
2022-11-24T21:09:48.458Z,45.30
2022-11-24T21:11:50.361Z,45.30
2022-11-24T21:13:52.778Z,45.30
2022-11-24T21:15:55.285Z,45.30
2022-11-24T21:17:57.351Z,45.30
2022-11-24T21:20:01.126Z,45.30
2022-11-24T21:22:03.005Z,45.30
2022-11-24T21:24:13.617Z,45.30
2022-11-24T21:26:17.370Z,45.30
2022-11-24T21:28:19.197Z,45.30
2022-11-24T21:30:20.821Z,45.30
2022-11-24T21:32:22.977Z,45.30
2022-11-24T21:34:24.613Z,45.30
2022-11-24T21:36:26.645Z,45.20
2022-11-24T21:38:28.276Z,45.20
2022-11-24T21:40:32.926Z,45.10
2022-11-24T21:42:34.728Z,45.10
2022-11-24T21:44:36.897Z,45.00
2022-11-24T21:46:44.076Z,45.60
2022-11-24T21:48:47.572Z,45.00
2022-11-24T21:50:49.202Z,44.90
2022-11-24T21:52:50.925Z,44.90
2022-11-24T21:54:52.502Z,44.80
2022-11-24T21:56:54.373Z,44.80
2022-11-24T21:58:57.417Z,45.40
2022-11-24T22:01:08.897Z,44.80
2022-11-24T22:03:10.606Z,44.80
2022-11-24T22:05:12.254Z,44.80
2022-11-24T22:07:13.930Z,44.80
2022-11-24T22:09:18.177Z,44.80
2022-11-24T22:11:22.685Z,44.80
2022-11-24T22:13:24.277Z,44.80
2022-11-24T22:15:25.930Z,44.80
2022-11-24T22:17:30.976Z,44.90
2022-11-24T22:19:32.569Z,45.00
2022-11-24T22:21:34.305Z,44.90
2022-11-24T22:23:36.527Z,44.90
2022-11-24T22:25:38.165Z,44.90
2022-11-24T22:27:39.772Z,44.90
2022-11-24T22:29:41.411Z,44.90
2022-11-24T22:31:43.057Z,44.90
2022-11-24T22:33:45.294Z,44.90
2022-11-24T22:35:56.658Z,45.00
2022-11-24T22:37:58.288Z,45.00
2022-11-24T22:39:59.946Z,45.00
2022-11-24T22:42:01.534Z,45.00
2022-11-24T22:44:03.930Z,45.00
2022-11-24T22:46:13.817Z,45.00
2022-11-24T22:48:15.477Z,45.00
2022-11-24T22:50:17.170Z,45.00
2022-11-24T22:52:18.810Z,45.00
2022-11-24T22:54:20.542Z,45.00
2022-11-24T22:56:23.049Z,45.00
2022-11-24T22:58:24.691Z,45.00
2022-11-24T23:00:26.325Z,45.00
2022-11-24T23:02:28.577Z,45.00
2022-11-24T23:04:30.370Z,45.00
2022-11-24T23:06:32.941Z,45.00
2022-11-24T23:08:35.597Z,45.00
2022-11-24T23:10:37.196Z,45.00
2022-11-24T23:12:38.799Z,45.00
2022-11-24T23:14:40.442Z,45.00
2022-11-24T23:16:43.110Z,45.00
2022-11-24T23:18:50.993Z,45.00
2022-11-24T23:20:55.698Z,45.00
2022-11-24T23:22:57.359Z,45.00
2022-11-24T23:24:58.974Z,45.00
2022-11-24T23:27:00.572Z,45.00
2022-11-24T23:29:03.120Z,45.00
2022-11-24T23:31:10.009Z,45.00
2022-11-24T23:33:11.782Z,45.00
2022-11-24T23:35:14.127Z,45.00
2022-11-24T23:37:15.951Z,45.00
2022-11-24T23:39:17.553Z,45.00
2022-11-24T23:41:24.757Z,45.00
2022-11-24T23:43:26.746Z,45.10
2022-11-24T23:45:28.357Z,45.00
2022-11-24T23:47:29.950Z,45.10
2022-11-24T23:49:31.631Z,45.10
2022-11-24T23:51:33.766Z,45.10
2022-11-24T23:53:35.935Z,45.10
2022-11-24T23:55:37.673Z,45.10
2022-11-24T23:57:39.321Z,45.10
2022-11-24T23:59:41.147Z,45.10
